createdAt,value
2018-07-09T00:01:26.898Z,5.65
2018-07-09T00:03:55.867Z,4.90
2018-07-09T00:06:24.820Z,4.92
2018-07-09T00:08:53.702Z,5.70
2018-07-09T00:11:22.630Z,4.50
2018-07-09T00:13:51.533Z,5.22
2018-07-09T00:16:20.443Z,4.92
2018-07-09T00:18:49.349Z,4.30
2018-07-09T00:21:18.294Z,4.42
2018-07-09T00:23:46.881Z,4.85
2018-07-09T00:26:15.718Z,4.83
2018-07-09T00:28:44.618Z,5.12
2018-07-09T00:31:13.575Z,5.60
2018-07-09T00:33:42.494Z,5.28
2018-07-09T00:36:11.500Z,5.33
2018-07-09T00:38:40.466Z,5.40
2018-07-09T00:41:09.410Z,5.70
2018-07-09T00:43:38.336Z,5.12
2018-07-09T00:46:07.286Z,5.25
2018-07-09T00:48:36.273Z,4.75
2018-07-09T00:51:05.308Z,4.85
2018-07-09T00:53:34.397Z,5.45
2018-07-09T00:56:03.406Z,5.85
2018-07-09T00:58:32.338Z,4.90
2018-07-09T01:01:01.263Z,4.62
2018-07-09T01:03:30.250Z,5.20
2018-07-09T01:05:59.138Z,5.10
2018-07-09T01:08:28.456Z,5.00
2018-07-09T01:12:06.497Z,5.20
2018-07-09T01:14:35.458Z,5.33
2018-07-09T01:17:04.423Z,5.53
2018-07-09T01:19:33.367Z,5.60
2018-07-09T01:22:03.188Z,5.60
2018-07-09T01:24:32.094Z,5.55
2018-07-09T01:27:01.350Z,5.60
2018-07-09T01:29:30.333Z,5.62
2018-07-09T01:31:59.226Z,5.42
2018-07-09T01:34:28.170Z,5.65
2018-07-09T01:36:57.171Z,5.40
2018-07-09T01:39:26.062Z,5.87
2018-07-09T01:41:54.937Z,5.22
2018-07-09T01:44:23.881Z,5.42
2018-07-09T01:46:52.878Z,5.55
2018-07-09T01:49:21.890Z,4.95
2018-07-09T01:51:50.871Z,5.72
2018-07-09T01:54:19.901Z,5.17
2018-07-09T01:56:48.841Z,5.08
2018-07-09T01:59:17.905Z,5.75
2018-07-09T02:01:46.904Z,6.40
2018-07-09T02:04:15.839Z,5.70
2018-07-09T02:06:44.738Z,5.37
2018-07-09T02:09:13.641Z,4.85
2018-07-09T02:11:42.530Z,5.67
2018-07-09T02:14:11.485Z,5.17
2018-07-09T02:16:40.434Z,5.20
2018-07-09T02:19:09.465Z,5.28
2018-07-09T02:21:38.365Z,5.40
2018-07-09T02:24:07.917Z,5.60
2018-07-09T02:26:36.807Z,5.50
2018-07-09T02:29:06.047Z,5.70
2018-07-09T02:31:34.960Z,6.10
2018-07-09T02:34:03.874Z,5.58
2018-07-09T02:36:32.810Z,5.80
2018-07-09T02:39:02.326Z,4.90
2018-07-09T02:41:31.287Z,5.95
2018-07-09T02:44:00.214Z,5.83
2018-07-09T02:46:29.162Z,5.80
2018-07-09T02:48:58.385Z,6.65
2018-07-09T02:51:27.279Z,5.83
2018-07-09T02:53:56.230Z,6.12
2018-07-09T02:56:25.131Z,5.62
2018-07-09T02:58:54.054Z,6.28
2018-07-09T03:01:22.982Z,6.22
2018-07-09T03:03:51.941Z,7.10
2018-07-09T03:06:20.818Z,5.83
2018-07-09T03:08:49.773Z,5.95
2018-07-09T03:11:18.669Z,6.62
2018-07-09T03:13:47.587Z,6.40
2018-07-09T03:16:16.515Z,6.55
2018-07-09T03:18:45.529Z,6.00
2018-07-09T03:21:14.401Z,5.08
2018-07-09T03:23:43.671Z,5.78
2018-07-09T03:26:12.615Z,5.35
2018-07-09T03:28:41.540Z,5.45
2018-07-09T03:31:10.443Z,6.70
2018-07-09T03:33:39.612Z,5.65
2018-07-09T03:36:08.777Z,6.65
2018-07-09T03:38:37.682Z,5.70
2018-07-09T03:41:06.579Z,6.10
2018-07-09T03:43:35.486Z,6.72
2018-07-09T03:46:04.373Z,5.62
2018-07-09T03:48:33.269Z,6.62
2018-07-09T03:51:02.191Z,6.03
2018-07-09T03:53:31.094Z,7.20
2018-07-09T03:55:59.983Z,5.37
2018-07-09T03:58:28.870Z,5.40
2018-07-09T04:00:57.742Z,6.00
2018-07-09T04:03:26.670Z,6.17
2018-07-09T04:05:55.557Z,6.33
2018-07-09T04:08:24.590Z,6.95
2018-07-09T04:10:53.622Z,7.45
2018-07-09T04:13:22.634Z,6.87
2018-07-09T04:15:51.531Z,6.20
2018-07-09T04:18:25.166Z,6.58
2018-07-09T04:20:55.845Z,6.60
2018-07-09T04:23:24.795Z,7.03
2018-07-09T04:25:53.670Z,6.28
2018-07-09T04:28:22.722Z,7.87
2018-07-09T04:30:51.679Z,5.58
2018-07-09T04:33:20.752Z,5.37
2018-07-09T04:35:49.597Z,6.25
2018-07-09T04:38:18.676Z,6.08
2018-07-09T04:40:47.618Z,6.65
2018-07-09T04:43:16.545Z,7.00
2018-07-09T04:45:45.419Z,6.83
2018-07-09T04:48:14.346Z,6.30
2018-07-09T04:50:43.234Z,7.10
2018-07-09T04:53:12.190Z,7.20
2018-07-09T04:55:41.101Z,6.20
2018-07-09T04:58:10.116Z,5.50
2018-07-09T05:00:38.723Z,6.75
2018-07-09T05:03:07.553Z,6.45
2018-07-09T05:05:36.474Z,6.17
2018-07-09T05:08:05.390Z,7.50
2018-07-09T05:10:34.330Z,6.40
2018-07-09T05:13:03.341Z,6.33
2018-07-09T05:15:32.165Z,7.00
2018-07-09T05:18:01.050Z,6.90
2018-07-09T05:20:29.927Z,7.05
2018-07-09T05:22:58.862Z,6.80
2018-07-09T05:25:27.905Z,6.00
2018-07-09T05:27:56.818Z,6.55
2018-07-09T05:30:25.723Z,7.00
2018-07-09T05:32:54.626Z,7.33
2018-07-09T05:35:23.595Z,5.75
2018-07-09T05:37:52.601Z,6.28
2018-07-09T05:40:21.630Z,6.15
2018-07-09T05:42:50.598Z,7.25
2018-07-09T05:45:19.554Z,6.70
2018-07-09T05:47:48.528Z,5.58
2018-07-09T05:50:18.914Z,6.95
2018-07-09T05:52:47.846Z,6.95
2018-07-09T05:55:16.446Z,5.45
2018-07-09T05:57:45.271Z,7.87
2018-07-09T06:00:14.399Z,6.80
2018-07-09T06:02:43.514Z,6.25
2018-07-09T06:05:12.485Z,7.40
2018-07-09T06:07:41.521Z,6.45
2018-07-09T06:10:10.456Z,5.12
2018-07-09T06:12:39.422Z,6.70
2018-07-09T06:15:08.399Z,6.75
2018-07-09T06:17:37.310Z,6.47
2018-07-09T06:20:06.766Z,6.62
2018-07-09T06:22:35.992Z,6.17
2018-07-09T06:25:04.963Z,6.60
2018-07-09T06:27:33.851Z,7.30
2018-07-09T06:30:02.802Z,6.40
2018-07-09T06:32:31.740Z,6.95
2018-07-09T06:35:00.678Z,6.37
2018-07-09T06:37:29.578Z,6.80
2018-07-09T06:39:58.643Z,6.05
2018-07-09T06:42:27.567Z,6.20
2018-07-09T06:44:56.488Z,6.20
2018-07-09T06:47:25.382Z,6.08
2018-07-09T06:49:54.336Z,6.05
2018-07-09T06:52:23.371Z,6.28
2018-07-09T06:54:52.278Z,5.78
2018-07-09T06:57:20.932Z,6.40
2018-07-09T06:59:49.773Z,5.55
2018-07-09T07:02:18.679Z,6.40
2018-07-09T07:04:47.635Z,5.87
2018-07-09T07:07:16.517Z,5.80
2018-07-09T07:09:45.602Z,6.62
2018-07-09T07:12:14.518Z,5.30
2018-07-09T07:14:43.462Z,5.25
2018-07-09T07:17:12.402Z,5.72
2018-07-09T07:19:41.342Z,5.78
2018-07-09T07:22:10.331Z,6.05
2018-07-09T07:24:38.942Z,5.72
2018-07-09T07:27:07.963Z,5.53
2018-07-09T07:29:36.901Z,5.25
2018-07-09T07:32:05.851Z,5.20
2018-07-09T07:34:34.826Z,5.60
2018-07-09T07:37:03.755Z,5.08
2018-07-09T07:39:32.700Z,5.00
2018-07-09T07:42:01.612Z,4.55
2018-07-09T07:44:30.634Z,4.90
2018-07-09T07:46:59.635Z,5.00
2018-07-09T07:49:28.550Z,4.77
2018-07-09T07:51:57.587Z,4.23
2018-07-09T07:54:26.527Z,6.17
2018-07-09T07:56:55.486Z,4.57
2018-07-09T07:59:24.493Z,5.35
2018-07-09T08:01:53.088Z,4.83
2018-07-09T08:04:22.012Z,4.57
2018-07-09T08:06:50.878Z,4.43
2018-07-09T08:09:19.939Z,4.70
2018-07-09T08:11:49.192Z,5.10
2018-07-09T08:14:17.664Z,4.93
2018-07-09T08:16:46.620Z,4.67
2018-07-09T08:19:15.533Z,5.20
2018-07-09T08:21:44.462Z,4.57
2018-07-09T08:24:13.436Z,4.50
2018-07-09T08:26:42.339Z,4.47
2018-07-09T08:29:11.371Z,4.22
2018-07-09T08:31:40.283Z,4.75
2018-07-09T08:34:09.306Z,4.70
2018-07-09T08:36:38.270Z,4.50
2018-07-09T08:39:07.346Z,4.60
2018-07-09T08:41:36.303Z,4.13
2018-07-09T08:44:05.262Z,5.00
2018-07-09T08:46:34.188Z,4.40
2018-07-09T08:49:03.140Z,4.10
2018-07-09T08:51:32.019Z,4.50
2018-07-09T08:54:01.039Z,5.53
2018-07-09T08:56:30.159Z,4.90
2018-07-09T08:58:59.046Z,4.80
2018-07-09T09:01:27.950Z,4.23
2018-07-09T09:03:56.854Z,4.30
2018-07-09T09:06:25.758Z,4.40
2018-07-09T09:08:54.845Z,4.70
2018-07-09T09:11:23.746Z,5.27
2018-07-09T09:13:52.878Z,4.90
2018-07-09T09:16:21.856Z,4.10
2018-07-09T09:18:51.182Z,4.50
2018-07-09T09:21:20.274Z,4.13
2018-07-09T09:23:49.306Z,5.13
2018-07-09T09:26:18.254Z,5.33
2018-07-09T09:28:47.146Z,4.23
2018-07-09T09:31:16.069Z,4.40
2018-07-09T09:33:44.944Z,4.40
2018-07-09T09:36:13.919Z,3.77
2018-07-09T09:38:42.843Z,4.47
2018-07-09T09:41:11.782Z,4.60
2018-07-09T09:43:40.687Z,5.00
2018-07-09T09:46:09.690Z,4.40
2018-07-09T09:48:38.706Z,4.60
2018-07-09T09:51:07.718Z,5.00
2018-07-09T09:53:36.605Z,4.70
2018-07-09T09:56:05.568Z,4.93
2018-07-09T09:58:34.477Z,5.50
2018-07-09T10:01:03.371Z,4.77
2018-07-09T10:03:32.258Z,4.70
2018-07-09T10:06:01.178Z,4.30
2018-07-09T10:08:30.125Z,4.90
2018-07-09T10:10:59.002Z,4.37
2018-07-09T10:13:27.882Z,3.90
2018-07-09T10:15:56.782Z,4.00
2018-07-09T10:18:25.862Z,3.90
2018-07-09T10:20:54.851Z,3.80
2018-07-09T10:23:23.766Z,4.40
2018-07-09T10:25:52.749Z,3.90
2018-07-09T10:28:21.610Z,3.97
2018-07-09T10:30:50.387Z,3.57
2018-07-09T10:33:19.198Z,3.87
2018-07-09T10:35:48.125Z,3.60
2018-07-09T10:38:17.010Z,4.13
2018-07-09T10:40:45.979Z,3.93
2018-07-09T10:43:15.046Z,3.80
2018-07-09T10:45:44.007Z,4.57
2018-07-09T10:48:12.898Z,3.90
2018-07-09T10:50:41.824Z,4.47
2018-07-09T10:53:10.746Z,3.87
2018-07-09T10:55:39.687Z,3.80
2018-07-09T10:58:08.612Z,3.77
2018-07-09T11:00:37.567Z,3.57
2018-07-09T11:03:06.530Z,4.20
2018-07-09T11:05:35.458Z,4.27
2018-07-09T11:08:04.438Z,4.13
2018-07-09T11:10:33.390Z,4.30
2018-07-09T11:13:03.110Z,4.00
2018-07-09T11:15:32.054Z,4.27
2018-07-09T11:18:01.056Z,4.63
2018-07-09T11:20:29.960Z,4.50
2018-07-09T11:22:58.821Z,4.17
2018-07-09T11:25:27.831Z,4.33
2018-07-09T11:27:56.994Z,4.27
2018-07-09T11:30:25.955Z,3.67
2018-07-09T11:32:54.854Z,4.60
2018-07-09T11:35:23.755Z,4.43
2018-07-09T11:37:52.671Z,4.03
2018-07-09T11:40:21.646Z,3.80
2018-07-09T11:42:50.558Z,4.50
2018-07-09T11:45:19.544Z,3.80
2018-07-09T11:47:49.319Z,3.60
2018-07-09T11:50:18.287Z,4.37
2018-07-09T11:52:47.154Z,3.40
2018-07-09T11:55:16.056Z,3.90
2018-07-09T11:57:45.118Z,4.13
2018-07-09T12:00:14.075Z,4.07
2018-07-09T12:02:43.010Z,3.90
2018-07-09T12:05:12.035Z,4.00
2018-07-09T12:07:40.963Z,4.00
2018-07-09T12:10:09.907Z,3.67
2018-07-09T12:12:38.880Z,3.10
2018-07-09T12:15:07.816Z,3.47
2018-07-09T12:17:36.755Z,3.67
2018-07-09T12:20:05.689Z,4.10
2018-07-09T12:22:34.610Z,4.17
2018-07-09T12:25:03.582Z,3.60
2018-07-09T12:27:32.479Z,3.40
2018-07-09T12:30:01.365Z,3.40
2018-07-09T12:32:30.243Z,4.30
2018-07-09T12:34:59.174Z,3.50
2018-07-09T12:37:28.059Z,4.23
2018-07-09T12:39:57.030Z,4.40
2018-07-09T12:42:25.947Z,3.60
2018-07-09T12:44:54.832Z,3.67
2018-07-09T12:47:23.726Z,3.70
2018-07-09T12:49:52.612Z,3.70
2018-07-09T12:52:21.515Z,3.10
2018-07-09T12:54:50.415Z,3.33
2018-07-09T12:57:19.319Z,3.77
2018-07-09T12:59:48.290Z,4.27
2018-07-09T13:02:17.178Z,3.87
2018-07-09T13:04:46.058Z,4.27
2018-07-09T13:07:14.980Z,4.27
2018-07-09T13:09:43.891Z,3.00
2018-07-09T13:12:16.448Z,3.10
2018-07-09T13:14:45.359Z,2.90
2018-07-09T13:17:14.278Z,2.80
2018-07-09T13:19:43.169Z,3.00
2018-07-09T13:22:12.074Z,3.00
2018-07-09T13:24:41.105Z,2.97
2018-07-09T13:27:10.019Z,3.23
2018-07-09T13:29:38.925Z,2.80
2018-07-09T13:32:07.862Z,2.97
2018-07-09T13:34:36.966Z,3.30
2018-07-09T13:37:06.266Z,2.70
2018-07-09T13:39:35.558Z,3.40
2018-07-09T13:42:04.522Z,3.80
2018-07-09T13:44:33.510Z,3.00
2018-07-09T13:47:02.472Z,2.60
2018-07-09T13:49:31.498Z,2.60
2018-07-09T13:52:00.478Z,3.47
2018-07-09T13:54:29.377Z,2.40
2018-07-09T13:56:58.298Z,3.03
2018-07-09T13:59:27.210Z,2.37
2018-07-09T14:01:56.159Z,2.90
2018-07-09T14:04:25.057Z,2.60
2018-07-09T14:06:54.274Z,2.70
2018-07-09T14:09:23.183Z,2.50
2018-07-09T14:11:52.070Z,2.80
2018-07-09T14:14:20.951Z,2.53
2018-07-09T14:16:49.862Z,2.30
2018-07-09T14:19:30.551Z,2.67
2018-07-09T14:21:59.422Z,2.80
2018-07-09T14:24:28.290Z,2.53
2018-07-09T14:26:57.154Z,2.53
2018-07-09T14:29:26.026Z,3.00
2018-07-09T14:31:55.035Z,2.60
2018-07-09T14:34:23.902Z,2.50
2018-07-09T14:36:52.844Z,2.13
2018-07-09T14:39:21.662Z,2.17
2018-07-09T14:41:50.551Z,1.90
2018-07-09T14:44:19.435Z,1.80
2018-07-09T14:46:48.338Z,1.70
2018-07-09T14:49:17.206Z,2.10
2018-07-09T14:51:46.196Z,1.90
2018-07-09T14:54:15.002Z,1.80
2018-07-09T14:56:43.630Z,1.83
2018-07-09T14:59:12.423Z,2.00
2018-07-09T15:01:41.442Z,2.30
2018-07-09T15:04:10.369Z,1.70
2018-07-09T15:06:39.334Z,1.70
2018-07-09T15:09:08.235Z,2.03
2018-07-09T15:11:37.330Z,1.80
2018-07-09T15:14:06.387Z,2.00
2018-07-09T15:16:35.299Z,1.70
2018-07-09T15:19:04.258Z,1.63
2018-07-09T15:21:33.182Z,2.00
2018-07-09T15:24:02.050Z,1.73
2018-07-09T15:26:30.947Z,2.20
2018-07-09T15:28:59.818Z,1.90
2018-07-09T15:31:28.750Z,1.57
2018-07-09T15:33:57.716Z,1.90
2018-07-09T15:36:27.257Z,1.53
2018-07-09T15:38:56.310Z,1.57
2018-07-09T15:41:25.445Z,1.90
2018-07-09T15:44:01.095Z,1.37
2018-07-09T15:46:30.185Z,2.03
2018-07-09T15:48:59.030Z,1.63
2018-07-09T15:51:27.917Z,2.00
2018-07-09T15:53:57.066Z,1.60
2018-07-09T15:56:26.874Z,1.77
2018-07-09T15:58:56.098Z,1.67
2018-07-09T16:01:25.072Z,1.73
2018-07-09T16:03:53.949Z,1.53
2018-07-09T16:06:23.310Z,1.50
2018-07-09T16:08:52.643Z,1.70
2018-07-09T16:11:21.535Z,1.50
2018-07-09T16:13:50.958Z,1.80
2018-07-09T16:16:20.614Z,1.53
2018-07-09T16:18:49.515Z,1.53
2018-07-09T16:21:18.444Z,1.53
2018-07-09T16:23:47.326Z,1.33
2018-07-09T16:26:16.222Z,1.60
2018-07-09T16:28:45.227Z,1.57
2018-07-09T16:31:17.091Z,1.77
2018-07-09T16:33:46.001Z,1.47
2018-07-09T16:36:14.957Z,1.40
2018-07-09T16:38:43.854Z,1.70
2018-07-09T16:41:12.749Z,1.23
2018-07-09T16:43:41.738Z,1.30
2018-07-09T16:46:10.599Z,1.90
2018-07-09T16:48:39.574Z,1.40
2018-07-09T16:51:08.474Z,1.20
2018-07-09T16:53:37.548Z,1.30
2018-07-09T16:56:06.722Z,1.70
2018-07-09T16:58:35.648Z,1.90
2018-07-09T17:01:04.566Z,1.30
2018-07-09T17:03:33.462Z,1.37
2018-07-09T17:06:02.563Z,1.43
2018-07-09T17:08:31.657Z,1.17
2018-07-09T17:11:00.539Z,1.60
2018-07-09T17:13:29.540Z,1.70
2018-07-09T17:15:58.502Z,1.40
2018-07-09T17:18:27.501Z,1.80
2018-07-09T17:20:56.391Z,1.30
2018-07-09T17:23:25.337Z,1.50
2018-07-09T17:25:54.223Z,1.80
2018-07-09T17:28:23.154Z,1.20
2018-07-09T17:30:52.491Z,1.80
2018-07-09T17:33:21.391Z,1.60
2018-07-09T17:35:50.310Z,1.50
2018-07-09T17:38:19.240Z,1.60
2018-07-09T17:40:48.127Z,1.43
2018-07-09T17:43:17.080Z,1.67
2018-07-09T17:45:45.998Z,1.77
2018-07-09T17:48:15.058Z,1.50
2018-07-09T17:50:43.934Z,1.97
2018-07-09T17:53:12.810Z,1.50
2018-07-09T17:55:41.718Z,1.37
2018-07-09T17:58:10.746Z,1.47
2018-07-09T18:00:39.729Z,1.53
2018-07-09T18:03:08.744Z,1.40
2018-07-09T18:05:37.634Z,1.53
2018-07-09T18:08:06.647Z,1.10
2018-07-09T18:10:35.541Z,1.50
2018-07-09T18:13:04.461Z,1.20
2018-07-09T18:15:33.751Z,1.50
2018-07-09T18:18:02.750Z,1.30
2018-07-09T18:20:31.343Z,1.17
2018-07-09T18:23:00.159Z,1.13
2018-07-09T18:25:28.762Z,1.20
2018-07-09T18:27:57.714Z,1.57
2018-07-09T18:30:26.613Z,1.30
2018-07-09T18:32:55.530Z,1.40
2018-07-09T18:35:24.837Z,1.40
2018-07-09T18:37:53.713Z,1.37
2018-07-09T18:40:22.607Z,1.33
2018-07-09T18:42:51.602Z,1.20
2018-07-09T18:45:20.538Z,1.20
2018-07-09T18:47:49.471Z,1.40
2018-07-09T18:50:18.551Z,1.23
2018-07-09T18:52:47.469Z,1.60
2018-07-09T18:55:17.264Z,1.40
2018-07-09T18:57:46.203Z,1.20
2018-07-09T19:00:15.142Z,1.20
2018-07-09T19:02:44.054Z,1.13
2018-07-09T19:05:13.087Z,1.30
2018-07-09T19:07:41.995Z,1.43
2018-07-09T19:10:11.109Z,1.20
2018-07-09T19:12:40.098Z,1.23
2018-07-09T19:15:09.374Z,1.40
2018-07-09T19:18:03.023Z,1.30
2018-07-09T19:20:43.110Z,1.43
2018-07-09T19:23:11.382Z,1.57
2018-07-09T19:25:39.549Z,1.90
2018-07-09T19:28:07.975Z,1.60
2018-07-09T19:30:35.750Z,2.03
2018-07-09T19:33:03.540Z,1.87
2018-07-09T19:35:31.392Z,2.30
2018-07-09T19:37:59.512Z,2.23
2018-07-09T19:40:27.073Z,2.10
2018-07-09T19:42:54.870Z,1.80
2018-07-09T19:45:23.238Z,1.83
2018-07-09T19:47:51.105Z,2.07
2018-07-09T19:50:18.906Z,1.80
2018-07-09T19:52:46.839Z,1.92
2018-07-09T19:55:14.621Z,1.50
2018-07-09T19:57:42.481Z,1.70
2018-07-09T20:00:10.316Z,1.83
2018-07-09T20:02:38.415Z,1.52
2018-07-09T20:05:06.475Z,1.73
2018-07-09T20:07:34.171Z,1.67
2018-07-09T20:10:09.636Z,1.80
2018-07-09T20:12:42.787Z,1.32
2018-07-09T20:15:15.960Z,1.75
2018-07-09T20:17:43.731Z,1.60
2018-07-09T20:20:11.549Z,1.87
2018-07-09T20:22:39.541Z,1.60
2018-07-09T20:25:07.434Z,1.67
2018-07-09T20:27:35.460Z,1.60
2018-07-09T20:30:03.491Z,1.60
2018-07-09T20:32:31.328Z,1.45
2018-07-09T20:35:01.331Z,1.30
2018-07-09T20:37:30.051Z,1.55
2018-07-09T20:39:58.321Z,1.67
2018-07-09T20:42:26.350Z,1.20
2018-07-09T20:44:55.543Z,1.65
2018-07-09T20:47:24.438Z,1.32
2018-07-09T20:49:52.287Z,1.60
2018-07-09T20:52:20.455Z,1.57
2018-07-09T20:54:48.692Z,1.50
2018-07-09T20:57:16.529Z,1.30
2018-07-09T20:59:45.390Z,1.70
2018-07-09T21:02:13.254Z,2.00
2018-07-09T21:04:41.123Z,1.50
2018-07-09T21:07:17.178Z,1.60
2018-07-09T21:09:44.977Z,1.50
2018-07-09T21:12:13.126Z,1.60
2018-07-09T21:14:40.907Z,1.67
2018-07-09T21:17:08.787Z,1.80
2018-07-09T21:19:40.121Z,1.87
2018-07-09T21:22:09.056Z,1.67
2018-07-09T21:24:37.717Z,1.62
2018-07-09T21:27:05.763Z,1.32
2018-07-09T21:29:33.563Z,1.70
2018-07-09T21:32:01.360Z,1.67
2018-07-09T21:34:29.303Z,1.30
2018-07-09T21:36:57.903Z,1.45
2018-07-09T21:39:25.912Z,1.82
2018-07-09T21:41:54.061Z,1.92
2018-07-09T21:44:21.887Z,1.72
2018-07-09T21:46:49.732Z,2.15
2018-07-09T21:49:17.611Z,1.62
2018-07-09T21:51:45.410Z,1.65
2018-07-09T21:54:13.239Z,1.60
2018-07-09T21:56:41.087Z,1.80
2018-07-09T21:59:08.914Z,2.02
2018-07-09T22:01:36.749Z,1.80
2018-07-09T22:04:04.695Z,2.55
2018-07-09T22:06:32.953Z,1.62
2018-07-09T22:09:00.744Z,1.95
2018-07-09T22:11:28.698Z,1.70
2018-07-09T22:13:56.506Z,1.60
2018-07-09T22:16:25.847Z,1.67
2018-07-09T22:18:53.690Z,1.90
2018-07-09T22:21:21.494Z,2.50
2018-07-09T22:23:49.310Z,1.62
2018-07-09T22:26:17.129Z,1.70
2018-07-09T22:28:45.174Z,1.72
2018-07-09T22:31:14.251Z,1.90
2018-07-09T22:33:43.419Z,1.90
2018-07-09T22:36:12.638Z,1.50
2018-07-09T22:38:41.578Z,1.70
2018-07-09T22:41:10.459Z,1.90
2018-07-09T22:43:50.698Z,1.70
2018-07-09T22:46:19.591Z,2.30
2018-07-09T22:48:48.510Z,1.70
2018-07-09T22:51:17.476Z,2.10
2018-07-09T22:53:46.364Z,1.92
2018-07-09T22:56:15.271Z,1.92
2018-07-09T22:58:44.276Z,1.80
2018-07-09T23:01:13.214Z,1.92
2018-07-09T23:03:42.170Z,1.70
2018-07-09T23:06:11.078Z,1.65
2018-07-09T23:08:40.043Z,1.70
2018-07-09T23:11:20.546Z,1.95
2018-07-09T23:17:11.416Z,1.70
2018-07-09T23:21:58.476Z,1.98
2018-07-09T23:24:26.765Z,1.70
2018-07-09T23:26:55.158Z,1.82
2018-07-09T23:29:22.953Z,1.85
2018-07-09T23:31:50.909Z,1.80
2018-07-09T23:34:19.187Z,1.82
2018-07-09T23:36:47.038Z,2.15
2018-07-09T23:39:14.846Z,1.77
2018-07-09T23:41:42.656Z,2.25
2018-07-09T23:44:10.474Z,2.15
2018-07-09T23:46:38.312Z,1.77
2018-07-09T23:49:06.142Z,2.15
2018-07-09T23:51:33.955Z,2.12
2018-07-09T23:54:01.746Z,2.58
2018-07-09T23:59:43.581Z,1.98
